G1 CYXU-ZZZZ
Flight info
| Callsign | G1 |
|---|---|
| Flight time | N/A |
| Altitude | 3000 |
| Route | CYXU/33 VFRSOUTHBOUND |
| Aircraft | F18 |
Departure
| Time | 2026-04-20 23:31 |
|---|---|
| Airport | London International Airport (CYXU) |
Arrival
| Time | N/A |
|---|---|
| Airport | ZZZZ |
| Time | Latitude | Longitude | Altitude | Speed | Heading |
|---|---|---|---|---|---|
| 2026-04-20 23:30 | 43.01840 | -81.10693 | 2329 ft | 170 kts | 152° |
| 2026-04-20 23:31 | 43.00893 | -81.10917 | 1751 ft | 160 kts | 254° |
| 2026-04-20 23:31 | 43.01160 | -81.12246 | 1185 ft | 181 kts | 308° |
| 2026-04-20 23:31 | 43.01994 | -81.13279 | 962 ft | 140 kts | 317° |
| 2026-04-20 23:31 | 43.02571 | -81.13989 | 897 ft | 90 kts | 317° |
| 2026-04-20 23:32 | 43.03515 | -81.15112 | 1069 ft | 297 kts | 318° |
| 2026-04-20 23:32 | 43.05735 | -81.17756 | 1234 ft | 540 kts | 316° |
| 2026-04-20 23:32 | 43.04370 | -81.20110 | 1477 ft | 469 kts | 178° |
| 2026-04-20 23:32 | 43.01067 | -81.20006 | 1725 ft | 481 kts | 184° |
| 2026-04-20 23:33 | 42.97738 | -81.20797 | 1326 ft | 493 kts | 185° |
| 2026-04-20 23:33 | 42.94277 | -81.20799 | 1213 ft | 502 kts | 179° |
| 2026-04-20 23:33 | 42.90813 | -81.20707 | 1191 ft | 508 kts | 180° |
| 2026-04-20 23:33 | 42.87269 | -81.20610 | 1227 ft | 511 kts | 180° |
| 2026-04-20 23:34 | 42.83713 | -81.20520 | 1231 ft | 511 kts | 179° |
| 2026-04-20 23:34 | 42.80150 | -81.20446 | 1232 ft | 511 kts | 180° |
| 2026-04-20 23:34 | 42.76578 | -81.20383 | 1266 ft | 531 kts | 180° |
| 2026-04-20 23:34 | 42.75338 | -81.20362 | 1300 ft | 546 kts | 180° |
| 2026-04-20 23:35 | 42.71974 | -81.20315 | 1499 ft | 654 kts | 180° |
| 2026-04-20 23:35 | 42.65573 | -81.19908 | 3136 ft | 753 kts | 179° |
| 2026-04-20 23:36 | 42.60244 | -81.19613 | 3864 ft | 776 kts | 178° |
| 2026-04-20 23:36 | 42.54856 | -81.19292 | 5658 ft | 701 kts | 178° |
| 2026-04-20 23:36 | 42.50622 | -81.18908 | 15808 ft | 637 kts | 178° |
| 2026-04-20 23:36 | 42.47808 | -81.18635 | 21333 ft | 594 kts | 179° |
| 2026-04-20 23:37 | 42.44781 | -81.17442 | 24822 ft | 263 kts | 198° |
| 2026-04-20 23:37 | 42.42834 | -81.16770 | 20314 ft | 385 kts | 166° |
| 2026-04-20 23:37 | 42.40230 | -81.16633 | 14206 ft | 138 kts | 2° |
| 2026-04-20 23:37 | 42.39714 | -81.15580 | 7585 ft | 235 kts | 108° |